Time;durP1;ratioP1;P1;durP2;ratioP2;P2;SDS_P1;SDS_P2;PMS_P1;PMS_P2;Temp;Humidity;BMP_temperature;BMP_pressure;BME280_temperature;BME280_humidity;BME280_pressure;Samples;Min_cycle;Max_cycle;Signal;HPM_P1;HPM_P2
2021/11/20 00:01:23;;;;;;;22.13;5.25;;;12.70;99.90;;;;;;4981393;28;20458;-89
2021/11/20 00:03:50;;;;;;;26.85;5.88;;;12.70;99.90;;;;;;5003695;28;20515;-89
2021/11/20 00:06:20;;;;;;;36.40;5.90;;;12.70;99.90;;;;;;4994869;28;20050;-88
2021/11/20 00:08:47;;;;;;;22.75;5.30;;;12.70;99.90;;;;;;4984319;28;20406;-89
2021/11/20 00:11:16;;;;;;;32.58;5.90;;;12.70;99.90;;;;;;4982116;28;20109;-89
2021/11/20 00:13:48;;;;;;;31.88;5.22;;;12.70;99.90;;;;;;5005321;28;20065;-89
2021/11/20 00:16:18;;;;;;;30.08;6.07;;;12.70;99.90;;;;;;4977461;28;20846;-89
2021/11/20 00:18:45;;;;;;;35.30;5.28;;;12.70;99.90;;;;;;4982326;28;20061;-89
2021/11/20 00:21:33;;;;;;;23.23;5.25;;;12.70;99.90;;;;;;4985566;28;20546;-90
2021/11/20 00:24:13;;;;;;;27.85;6.65;;;12.70;99.90;;;;;;4982016;28;20137;-90
2021/11/20 00:26:40;;;;;;;32.72;6.18;;;12.70;99.90;;;;;;4998428;28;20108;-90
2021/11/20 00:29:21;;;;;;;24.75;5.95;;;12.70;99.90;;;;;;4975915;28;20062;-89
2021/11/20 00:31:56;;;;;;;28.20;6.30;;;12.70;99.90;;;;;;4985458;28;20712;-88
2021/11/20 00:34:29;;;;;;;35.92;6.80;;;12.70;99.90;;;;;;4999874;28;20058;-89
2021/11/20 00:36:59;;;;;;;25.52;5.88;;;12.70;99.90;;;;;;5012246;28;20085;-89
2021/11/20 00:39:29;;;;;;;28.00;6.22;;;12.70;99.90;;;;;;4982333;28;20054;-89
2021/11/20 00:41:57;;;;;;;45.78;6.15;;;12.70;99.90;;;;;;4993870;28;20056;-88
2021/11/20 00:44:25;;;;;;;26.23;5.57;;;12.70;99.90;;;;;;4993541;28;20061;-89
2021/11/20 00:46:52;;;;;;;36.63;5.75;;;12.70;99.90;;;;;;4981730;28;20389;-88
2021/11/20 00:49:21;;;;;;;33.05;5.78;;;12.70;99.90;;;;;;4983952;28;20050;-90
2021/11/20 00:51:49;;;;;;;28.02;6.05;;;12.70;99.90;;;;;;4985176;28;20137;-89
2021/11/20 00:54:17;;;;;;;33.50;4.85;;;12.70;99.90;;;;;;4978506;28;20105;-89
2021/11/20 00:56:44;;;;;;;34.05;6.03;;;12.60;99.90;;;;;;4989450;28;20042;-89
2021/11/20 00:59:14;;;;;;;22.15;5.60;;;12.70;99.90;;;;;;4979352;28;20084;-89
2021/11/20 01:01:50;;;;;;;22.75;5.18;;;12.70;99.90;;;;;;4989627;28;20123;-89
2021/11/20 01:04:19;;;;;;;33.42;5.40;;;12.70;99.90;;;;;;4979244;28;20051;-89
2021/11/20 01:06:46;;;;;;;32.13;4.72;;;12.70;99.90;;;;;;4994535;28;20116;-89
2021/11/20 01:09:19;;;;;;;32.08;6.32;;;12.70;99.90;;;;;;4989314;28;20132;-89
2021/11/20 01:11:56;;;;;;;27.13;5.40;;;12.70;99.90;;;;;;4982561;28;20088;-89
2021/11/20 01:14:25;;;;;;;26.08;7.18;;;12.70;99.90;;;;;;4994361;28;20046;-89
2021/11/20 01:16:54;;;;;;;27.63;5.70;;;12.70;99.90;;;;;;4994181;28;20081;-89
2021/11/20 01:19:22;;;;;;;33.50;5.43;;;12.60;99.90;;;;;;4984575;28;20450;-89
2021/11/20 01:21:51;;;;;;;23.42;6.10;;;12.60;99.90;;;;;;4993707;28;20068;-88
2021/11/20 01:24:18;;;;;;;29.50;6.57;;;12.60;99.90;;;;;;4994273;28;20073;-89
2021/11/20 01:26:45;;;;;;;29.27;6.18;;;12.60;99.90;;;;;;5010826;28;20150;-89
2021/11/20 01:29:14;;;;;;;24.15;4.38;;;12.60;99.90;;;;;;4982138;28;20049;-89
2021/11/20 01:31:44;;;;;;;21.73;4.90;;;12.60;99.90;;;;;;4994684;28;20092;-90
2021/11/20 01:34:12;;;;;;;23.90;4.53;;;12.60;99.90;;;;;;4991097;28;20043;-89
2021/11/20 01:36:40;;;;;;;22.67;4.90;;;12.60;99.90;;;;;;4992054;28;20070;-89
2021/11/20 01:39:11;;;;;;;31.90;4.57;;;12.50;99.90;;;;;;4990562;28;20141;-89
2021/11/20 01:41:39;;;;;;;21.85;4.93;;;12.50;99.90;;;;;;4981047;28;20092;-89
2021/11/20 01:44:17;;;;;;;16.98;4.55;;;12.60;99.90;;;;;;4979250;28;20077;-89
2021/11/20 01:46:50;;;;;;;28.90;5.13;;;12.50;99.90;;;;;;4988662;28;20096;-90
2021/11/20 01:49:21;;;;;;;29.15;4.82;;;12.50;99.90;;;;;;4994156;28;20128;-90
2021/11/20 01:51:57;;;;;;;15.95;5.00;;;12.50;99.90;;;;;;4982826;28;20041;-90
2021/11/20 01:54:54;;;;;;;13.90;4.25;;;12.50;99.90;;;;;;4983347;28;20061;-89
2021/11/20 01:57:29;;;;;;;22.88;5.50;;;12.40;99.90;;;;;;4981393;28;20042;-89
2021/11/20 02:00:14;;;;;;;20.48;4.63;;;12.40;99.90;;;;;;4994433;28;20136;-90
2021/11/20 02:02:57;;;;;;;21.58;4.20;;;12.30;99.90;;;;;;4997246;28;20169;-90
2021/11/20 02:06:27;;;;;;;23.67;4.57;;;12.40;99.90;;;;;;4985470;28;20392;-91
2021/11/20 02:09:48;;;;;;;20.48;4.22;;;12.30;99.90;;;;;;4975594;28;20050;-91
2021/11/20 02:12:21;;;;;;;11.95;4.30;;;12.30;99.90;;;;;;4987837;28;20046;-92
2021/11/20 02:14:48;;;;;;;27.90;4.65;;;12.30;99.90;;;;;;4988857;28;20546;-91
2021/11/20 02:17:35;;;;;;;19.38;5.43;;;12.30;99.90;;;;;;4979301;28;20050;-91
2021/11/20 02:20:20;;;;;;;15.82;5.30;;;12.20;99.90;;;;;;4979619;28;20097;-91
2021/11/20 02:22:46;;;;;;;19.00;5.00;;;12.20;99.90;;;;;;4979335;28;20071;-91
2021/11/20 02:25:13;;;;;;;26.92;5.18;;;12.20;99.90;;;;;;5014332;28;20111;-89
2021/11/20 02:27:48;;;;;;;14.80;5.22;;;12.20;99.90;;;;;;5014499;28;20172;-89
2021/11/20 02:30:23;;;;;;;22.42;5.43;;;12.20;99.90;;;;;;4993049;28;20100;-91
2021/11/20 02:32:58;;;;;;;22.13;4.68;;;12.20;99.90;;;;;;5010268;28;20428;-91
2021/11/20 02:35:48;;;;;;;19.30;4.93;;;12.20;99.90;;;;;;5000612;28;20061;-91
2021/11/20 02:38:23;;;;;;;22.63;6.28;;;12.20;99.90;;;;;;5016037;28;20056;-91
2021/11/20 02:40:50;;;;;;;20.33;4.80;;;12.20;99.90;;;;;;4997554;28;20426;-91
2021/11/20 02:43:28;;;;;;;17.10;5.55;;;12.30;99.90;;;;;;4983572;28;20399;-91
2021/11/20 02:45:57;;;;;;;21.58;5.65;;;12.20;99.90;;;;;;4987197;28;20058;-91
2021/11/20 02:48:25;;;;;;;18.90;4.55;;;12.20;99.90;;;;;;4995131;28;20384;-91
2021/11/20 02:51:02;;;;;;;19.48;4.95;;;12.20;99.90;;;;;;4998561;28;20101;-91
2021/11/20 02:53:31;;;;;;;22.05;5.63;;;12.20;99.90;;;;;;4993251;28;20113;-91
2021/11/20 02:55:59;;;;;;;17.98;5.28;;;12.20;99.90;;;;;;4992922;28;20050;-90
2021/11/20 02:58:27;;;;;;;18.95;5.32;;;12.30;99.90;;;;;;4996801;28;20135;-91
2021/11/20 03:01:02;;;;;;;23.45;4.95;;;12.20;99.90;;;;;;4998199;28;20065;-91
2021/11/20 03:03:30;;;;;;;27.98;5.95;;;12.30;99.90;;;;;;4992387;28;20100;-92
2021/11/20 03:05:58;;;;;;;16.27;4.45;;;12.30;99.90;;;;;;4990267;28;20057;-91
2021/11/20 03:08:24;;;;;;;25.48;5.70;;;12.30;99.90;;;;;;4996045;28;20054;-91
2021/11/20 03:10:53;;;;;;;25.17;4.80;;;12.20;99.90;;;;;;4988660;28;20072;-91
2021/11/20 03:13:19;;;;;;;10.65;3.85;;;12.30;99.90;;;;;;4994886;28;20081;-92
2021/11/20 03:15:47;;;;;;;16.00;4.03;;;12.30;99.90;;;;;;4977644;28;20054;-90
2021/11/20 03:18:13;;;;;;;15.68;3.85;;;12.30;99.90;;;;;;4992749;28;20077;-91
2021/11/20 03:20:42;;;;;;;16.30;3.63;;;12.20;99.90;;;;;;4994885;28;20073;-92
2021/11/20 03:23:18;;;;;;;14.05;3.75;;;12.20;99.90;;;;;;4995146;28;20045;-91
2021/11/20 03:25:44;;;;;;;16.88;6.05;;;12.30;99.90;;;;;;4995259;28;20504;-91
2021/11/20 03:28:12;;;;;;;22.88;4.28;;;12.30;99.90;;;;;;4988944;28;20042;-91
2021/11/20 03:30:40;;;;;;;22.58;4.07;;;12.20;99.90;;;;;;4985968;28;20050;-91
2021/11/20 03:33:08;;;;;;;14.82;3.90;;;12.20;99.90;;;;;;4978756;28;20054;-91
2021/11/20 03:35:35;;;;;;;18.13;4.00;;;12.20;99.90;;;;;;4989820;28;20054;-90
2021/11/20 03:38:03;;;;;;;11.65;3.20;;;12.20;99.90;;;;;;4984399;28;20196;-91
2021/11/20 03:40:34;;;;;;;9.30;3.50;;;12.20;99.90;;;;;;4989712;28;20081;-91
2021/11/20 03:43:01;;;;;;;16.88;3.05;;;12.10;99.90;;;;;;4993299;28;20099;-91
2021/11/20 03:45:30;;;;;;;18.17;4.93;;;12.10;99.90;;;;;;4989798;28;20069;-91
2021/11/20 03:47:58;;;;;;;14.55;2.75;;;12.10;99.90;;;;;;4992904;28;20076;-91
2021/11/20 03:50:27;;;;;;;14.65;2.83;;;12.10;99.90;;;;;;4977138;28;20128;-90
2021/11/20 03:52:54;;;;;;;21.15;2.83;;;12.10;99.90;;;;;;4981691;28;20077;-90
2021/11/20 03:55:25;;;;;;;6.32;3.05;;;12.10;99.90;;;;;;4993082;28;20096;-90
2021/11/20 03:57:53;;;;;;;8.82;2.47;;;12.10;99.90;;;;;;4996057;28;20134;-90
2021/11/20 04:00:26;;;;;;;14.10;2.65;;;12.00;99.90;;;;;;4992009;28;20078;-91
2021/11/20 04:02:53;;;;;;;15.02;2.30;;;12.10;99.90;;;;;;4981106;28;20066;-90
2021/11/20 04:05:21;;;;;;;10.00;2.33;;;12.10;99.90;;;;;;4993486;28;20054;-91
2021/11/20 04:07:49;;;;;;;11.07;2.58;;;12.10;99.90;;;;;;4995454;28;20057;-91
2021/11/20 04:10:18;;;;;;;8.20;2.25;;;12.10;99.90;;;;;;4988810;28;20042;-91
2021/11/20 04:12:46;;;;;;;12.25;2.47;;;12.10;99.90;;;;;;4986468;28;20053;-91
2021/11/20 04:15:18;;;;;;;13.35;3.20;;;12.10;99.90;;;;;;4982397;28;20096;-91
2021/11/20 04:17:45;;;;;;;7.32;2.03;;;12.10;99.90;;;;;;4993436;28;20491;-91
2021/11/20 04:20:16;;;;;;;11.63;2.55;;;12.10;99.90;;;;;;4980865;28;20053;-91
2021/11/20 04:22:44;;;;;;;8.32;2.00;;;12.10;99.90;;;;;;4994816;28;20123;-91
2021/11/20 04:25:14;;;;;;;11.07;2.10;;;12.10;99.90;;;;;;4989374;28;20069;-90
2021/11/20 04:27:41;;;;;;;5.22;1.83;;;12.10;99.90;;;;;;4977369;28;20078;-91
2021/11/20 04:30:11;;;;;;;10.40;1.98;;;12.10;99.90;;;;;;4980148;28;20097;-90
2021/11/20 04:32:38;;;;;;;8.27;1.80;;;12.10;99.90;;;;;;4998799;28;20045;-89
2021/11/20 04:35:07;;;;;;;5.00;2.00;;;12.10;99.90;;;;;;5026731;28;20050;-91
2021/11/20 04:37:34;;;;;;;9.10;2.33;;;12.10;99.90;;;;;;5011161;28;20033;-90
2021/11/20 04:40:02;;;;;;;7.53;2.00;;;12.00;99.90;;;;;;5009101;28;20076;-90
2021/11/20 04:42:28;;;;;;;10.60;1.95;;;12.00;99.90;;;;;;5032964;28;20050;-90
2021/11/20 04:44:55;;;;;;;6.30;2.05;;;12.10;99.90;;;;;;5018160;28;20544;-91
2021/11/20 04:47:22;;;;;;;6.90;1.92;;;12.00;99.90;;;;;;5012146;28;21185;-90
2021/11/20 04:49:49;;;;;;;9.95;1.60;;;12.00;99.90;;;;;;5014987;28;20488;-91
2021/11/20 04:52:16;;;;;;;9.27;1.70;;;12.00;99.90;;;;;;4984132;28;20491;-91
2021/11/20 04:54:44;;;;;;;5.95;1.38;;;12.10;99.90;;;;;;5010115;28;20050;-90
2021/11/20 04:57:28;;;;;;;6.45;1.45;;;12.10;99.90;;;;;;4980974;28;20057;-91
2021/11/20 04:59:55;;;;;;;8.43;1.52;;;12.10;99.90;;;;;;4993587;28;20434;-90
2021/11/20 05:02:22;;;;;;;6.45;1.63;;;12.10;99.90;;;;;;4981096;28;20050;-91
2021/11/20 05:04:49;;;;;;;3.85;1.35;;;12.10;99.90;;;;;;4974705;28;20054;-90
2021/11/20 05:07:16;;;;;;;6.32;1.60;;;12.10;99.90;;;;;;5005146;28;20054;-91
2021/11/20 05:09:44;;;;;;;3.38;0.90;;;12.10;99.90;;;;;;4993611;28;20490;-90
2021/11/20 05:12:11;;;;;;;5.60;1.23;;;12.20;99.90;;;;;;4988818;28;20169;-90
2021/11/20 05:14:38;;;;;;;4.20;1.00;;;12.10;99.90;;;;;;4989138;28;20157;-91
2021/11/20 05:17:06;;;;;;;6.05;1.33;;;12.10;99.90;;;;;;4977500;28;20046;-90
2021/11/20 05:19:34;;;;;;;9.32;1.00;;;12.10;99.90;;;;;;4981470;28;20492;-90
2021/11/20 05:22:01;;;;;;;4.85;1.70;;;12.10;99.90;;;;;;4985940;28;20137;-90
2021/11/20 05:24:28;;;;;;;3.65;1.25;;;12.10;99.90;;;;;;4986035;28;20062;-90
2021/11/20 05:26:55;;;;;;;6.00;1.20;;;12.10;99.90;;;;;;4998418;28;20112;-92
2021/11/20 05:31:52;;;;;;;5.32;1.30;;;11.90;99.90;;;;;;5001768;28;20470;-92
2021/11/20 05:34:23;;;;;;;9.20;1.95;;;11.90;99.90;;;;;;4993474;28;20479;-91
2021/11/20 05:36:50;;;;;;;7.07;1.52;;;11.90;99.90;;;;;;4994340;28;20133;-92
2021/11/20 05:39:27;;;;;;;12.88;1.40;;;11.80;99.90;;;;;;4993500;28;20066;-91
2021/11/20 05:41:54;;;;;;;7.95;1.40;;;11.80;99.90;;;;;;5012430;28;20136;-92
2021/11/20 05:44:21;;;;;;;7.18;2.65;;;11.80;99.90;;;;;;5001028;28;20070;-90
2021/11/20 05:46:50;;;;;;;4.63;1.20;;;11.80;99.90;;;;;;4998548;28;20442;-90
2021/11/20 05:49:19;;;;;;;13.93;7.75;;;11.90;99.90;;;;;;4985512;28;20097;-90
2021/11/20 05:51:46;;;;;;;6.88;2.58;;;11.90;99.90;;;;;;5015167;28;20070;-91
2021/11/20 05:54:13;;;;;;;4.43;2.28;;;11.90;99.90;;;;;;4995957;28;20400;-91
2021/11/20 05:56:40;;;;;;;9.27;1.67;;;11.90;99.90;;;;;;4998066;28;20117;-91
2021/11/20 05:59:22;;;;;;;8.63;1.38;;;11.90;99.90;;;;;;4996438;28;20060;-91
2021/11/20 06:01:50;;;;;;;8.00;1.65;;;12.00;99.90;;;;;;4981139;28;20136;-90
2021/11/20 06:04:18;;;;;;;10.27;1.77;;;12.00;99.90;;;;;;4992227;28;20084;-91
2021/11/20 06:06:45;;;;;;;10.40;1.65;;;11.90;99.90;;;;;;5008270;28;20053;-91
2021/11/20 06:09:15;;;;;;;3.80;1.20;;;12.00;99.90;;;;;;4985928;28;20129;-89
2021/11/20 06:11:42;;;;;;;5.70;1.65;;;12.00;99.90;;;;;;4986487;28;20742;-88
2021/11/20 06:14:11;;;;;;;6.45;1.40;;;12.00;99.90;;;;;;5004512;28;20155;-89
2021/11/20 06:16:38;;;;;;;8.52;1.65;;;12.00;99.90;;;;;;5007221;28;20467;-89
2021/11/20 06:19:09;;;;;;;5.57;1.70;;;12.00;99.90;;;;;;4983520;28;20050;-88
2021/11/20 06:21:37;;;;;;;9.25;2.05;;;12.00;99.90;;;;;;4992018;28;20050;-88
2021/11/20 06:24:05;;;;;;;5.40;1.75;;;12.00;99.90;;;;;;4979769;28;20065;-88
2021/11/20 06:26:33;;;;;;;5.63;1.55;;;12.00;99.90;;;;;;5010372;28;20050;-88
2021/11/20 06:29:02;;;;;;;3.42;1.33;;;12.00;99.90;;;;;;4994841;28;20133;-87
2021/11/20 06:31:30;;;;;;;8.55;1.35;;;11.90;99.90;;;;;;4989168;28;20175;-88
2021/11/20 06:33:58;;;;;;;5.68;1.60;;;12.00;99.90;;;;;;4985141;28;20148;-87
2021/11/20 06:36:25;;;;;;;3.30;1.30;;;11.90;99.90;;;;;;4980605;28;20141;-86
2021/11/20 06:38:51;;;;;;;7.88;1.40;;;11.90;99.90;;;;;;4987588;28;20121;-86
2021/11/20 06:41:20;;;;;;;5.50;1.80;;;11.90;99.90;;;;;;4984132;28;20129;-86
2021/11/20 06:43:48;;;;;;;8.35;1.70;;;11.90;99.90;;;;;;4986324;28;20054;-86
2021/11/20 06:46:16;;;;;;;9.50;3.15;;;11.90;99.90;;;;;;4978016;28;20080;-87
2021/11/20 06:48:44;;;;;;;8.30;1.88;;;11.90;99.90;;;;;;4987664;28;20053;-88
2021/11/20 06:51:12;;;;;;;4.25;1.58;;;11.90;99.90;;;;;;4982296;28;20046;-88
2021/11/20 06:53:40;;;;;;;13.05;2.03;;;11.90;99.90;;;;;;4976603;28;20108;-88
2021/11/20 06:56:14;;;;;;;6.72;1.30;;;11.90;99.90;;;;;;4995155;28;20053;-89
2021/11/20 07:01:19;;;;;;;3.10;1.63;;;11.90;99.90;;;;;;5007957;28;20399;-88
2021/11/20 07:03:52;;;;;;;5.85;1.75;;;11.90;99.90;;;;;;4994039;28;20089;-89
2021/11/20 07:06:33;;;;;;;8.95;2.22;;;12.00;99.90;;;;;;4995804;28;20128;-90
2021/11/20 07:09:02;;;;;;;21.02;4.80;;;12.00;99.90;;;;;;4995505;28;20129;-90
2021/11/20 07:11:33;;;;;;;8.15;3.25;;;12.00;99.90;;;;;;4979305;28;20605;-90
2021/11/20 07:14:04;;;;;;;16.83;4.60;;;12.00;99.90;;;;;;4978493;28;20050;-89
2021/11/20 07:16:32;;;;;;;11.23;2.60;;;12.00;99.90;;;;;;4984610;28;20045;-90
2021/11/20 07:19:01;;;;;;;14.50;3.65;;;12.00;99.90;;;;;;4990697;28;20056;-89
2021/11/20 07:21:31;;;;;;;11.80;2.80;;;12.00;99.90;;;;;;4990552;28;20054;-90
2021/11/20 07:24:01;;;;;;;19.40;3.47;;;12.00;99.90;;;;;;4989033;28;20077;-89
2021/11/20 07:26:28;;;;;;;14.45;4.45;;;12.00;99.90;;;;;;4991456;28;20057;-89
2021/11/20 07:28:59;;;;;;;12.60;2.72;;;12.10;99.90;;;;;;4994189;28;20054;-90
2021/11/20 07:31:45;;;;;;;15.93;2.97;;;12.10;99.90;;;;;;4989771;28;20549;-88
2021/11/20 07:34:13;;;;;;;14.35;3.03;;;12.10;99.90;;;;;;4988946;28;20053;-88
2021/11/20 07:36:43;;;;;;;10.52;3.03;;;12.00;99.90;;;;;;4983935;28;20089;-89
2021/11/20 07:39:14;;;;;;;16.75;3.53;;;12.00;99.90;;;;;;5001692;28;20053;-88
2021/11/20 07:41:42;;;;;;;22.08;4.15;;;12.10;99.90;;;;;;4978505;28;20054;-90
2021/11/20 07:44:09;;;;;;;16.88;2.90;;;12.10;99.90;;;;;;4983448;28;20054;-90
2021/11/20 07:46:37;;;;;;;11.70;2.67;;;12.10;99.90;;;;;;4992684;28;20057;-90
2021/11/20 07:49:05;;;;;;;15.70;2.95;;;12.10;99.90;;;;;;4993794;28;20128;-89
2021/11/20 07:51:32;;;;;;;14.50;3.17;;;12.20;99.90;;;;;;5012030;28;20073;-89
2021/11/20 07:53:59;;;;;;;10.43;2.92;;;12.10;99.90;;;;;;4994080;28;20109;-90
2021/11/20 07:56:29;;;;;;;10.57;3.05;;;12.20;99.90;;;;;;4979829;28;20189;-89
2021/11/20 07:58:57;;;;;;;20.38;4.72;;;12.10;99.90;;;;;;4992288;28;20052;-89
2021/11/20 08:01:25;;;;;;;20.30;3.83;;;12.20;99.90;;;;;;4987936;28;20058;-90
2021/11/20 08:03:52;;;;;;;13.32;3.17;;;12.20;99.90;;;;;;4990896;28;20483;-90
2021/11/20 08:06:20;;;;;;;13.30;3.28;;;12.20;99.90;;;;;;4995613;28;20062;-90
2021/11/20 08:08:47;;;;;;;13.15;3.35;;;12.30;99.90;;;;;;4994956;28;20053;-90
2021/11/20 08:11:17;;;;;;;12.63;2.90;;;12.20;99.90;;;;;;4996441;28;20053;-90
2021/11/20 08:13:44;;;;;;;21.77;4.00;;;12.20;99.90;;;;;;4976495;28;20046;-90
2021/11/20 08:16:11;;;;;;;11.05;3.50;;;12.20;99.90;;;;;;4991226;28;20046;-90
2021/11/20 08:18:40;;;;;;;25.52;3.83;;;12.20;99.90;;;;;;4995362;28;20084;-90
2021/11/20 08:21:07;;;;;;;17.08;3.88;;;12.20;99.90;;;;;;4984401;28;20149;-89
2021/11/20 08:23:35;;;;;;;11.45;4.05;;;12.30;99.90;;;;;;4976172;28;20058;-90
2021/11/20 08:26:03;;;;;;;22.35;3.90;;;12.40;99.90;;;;;;4976290;28;20054;-90
2021/11/20 08:31:52;;;;;;;15.32;4.47;;;12.60;99.90;;;;;;4977177;28;20453;-90
2021/11/20 08:34:19;;;;;;;17.13;4.35;;;12.70;99.90;;;;;;4986104;28;20501;-89
2021/11/20 08:36:46;;;;;;;15.50;4.85;;;12.90;99.90;;;;;;4995042;28;20521;-91
2021/11/20 08:39:15;;;;;;;21.65;4.80;;;13.10;99.90;;;;;;4974262;28;20054;-90
2021/11/20 08:41:44;;;;;;;14.02;4.38;;;13.00;99.90;;;;;;4993767;28;20126;-90
2021/11/20 08:44:11;;;;;;;19.55;4.78;;;13.00;99.90;;;;;;4994546;28;20078;-90
2021/11/20 08:46:40;;;;;;;17.13;5.00;;;12.80;99.90;;;;;;4979355;28;20053;-90
2021/11/20 08:49:07;;;;;;;18.08;6.03;;;12.80;99.90;;;;;;4974877;28;20062;-90
2021/11/20 08:51:36;;;;;;;16.98;5.63;;;12.80;99.90;;;;;;4980735;28;20414;-91
2021/11/20 08:54:04;;;;;;;24.95;6.00;;;12.80;99.90;;;;;;4975297;28;20454;-89
2021/11/20 08:56:34;;;;;;;24.30;5.70;;;12.80;99.90;;;;;;4983025;28;20100;-89
2021/11/20 08:59:01;;;;;;;17.58;5.50;;;12.90;99.90;;;;;;4994594;28;20053;-91
2021/11/20 09:01:36;;;;;;;17.80;5.68;;;12.90;99.90;;;;;;4987709;28;20050;-91
2021/11/20 09:04:14;;;;;;;17.17;5.30;;;13.00;99.90;;;;;;4988247;28;20479;-89
2021/11/20 09:06:52;;;;;;;21.58;6.10;;;13.00;99.90;;;;;;4994432;28;20078;-90
2021/11/20 09:09:37;;;;;;;21.00;5.55;;;13.10;99.90;;;;;;4994634;28;20053;-90
2021/11/20 09:12:28;;;;;;;17.60;6.70;;;13.10;99.90;;;;;;5002323;28;20070;-90
2021/11/20 09:14:59;;;;;;;28.55;6.10;;;13.10;99.90;;;;;;4978596;28;20057;-90
2021/11/20 09:17:26;;;;;;;16.42;5.82;;;13.10;99.90;;;;;;4995177;28;20084;-90
2021/11/20 09:19:53;;;;;;;19.52;6.28;;;13.10;99.90;;;;;;5009526;28;20147;-90
2021/11/20 09:22:21;;;;;;;17.92;6.65;;;13.10;99.90;;;;;;4993181;28;20046;-90
2021/11/20 09:24:49;;;;;;;18.77;6.95;;;13.20;99.90;;;;;;4993207;28;20088;-91
2021/11/20 09:27:37;;;;;;;22.65;6.07;;;13.30;99.90;;;;;;4997190;28;20387;-90
2021/11/20 09:30:17;;;;;;;12.35;6.30;;;13.40;99.90;;;;;;4994672;28;20046;-91
2021/11/20 09:32:44;;;;;;;26.63;6.80;;;13.40;99.90;;;;;;4979139;28;20133;-90
2021/11/20 09:35:11;;;;;;;19.60;6.32;;;13.30;99.90;;;;;;4995853;28;20077;-90
2021/11/20 09:37:38;;;;;;;19.58;6.35;;;13.40;99.90;;;;;;4994325;28;20042;-90
2021/11/20 09:40:08;;;;;;;15.98;6.70;;;13.30;99.90;;;;;;4998161;28;20055;-90
2021/11/20 09:42:51;;;;;;;20.58;7.55;;;13.30;99.90;;;;;;5006647;28;20054;-90
2021/11/20 09:45:22;;;;;;;19.00;7.80;;;13.30;99.90;;;;;;5011085;28;20029;-90
2021/11/20 09:47:54;;;;;;;19.23;7.25;;;13.30;99.90;;;;;;5034445;28;20037;-89
2021/11/20 09:50:32;;;;;;;22.63;8.30;;;13.30;99.90;;;;;;5015756;28;20042;-89
2021/11/20 09:52:59;;;;;;;21.67;7.53;;;13.30;99.90;;;;;;5032636;28;20042;-90
2021/11/20 09:55:30;;;;;;;22.25;8.25;;;13.30;99.90;;;;;;5027521;28;20105;-90
2021/11/20 09:58:05;;;;;;;27.90;9.70;;;13.20;99.90;;;;;;4997036;28;20069;-90
2021/11/20 10:00:41;;;;;;;;;;;13.20;99.90;;;;;;5011019;28;20100;-90
2021/11/20 10:03:25;;;;;;;21.08;8.27;;;13.20;99.90;;;;;;4996154;28;19921;-91
2021/11/20 10:06:00;;;;;;;22.60;9.02;;;13.20;99.90;;;;;;4983796;28;20104;-89
2021/11/20 10:08:28;;;;;;;26.98;8.95;;;13.20;99.90;;;;;;4977100;28;20050;-90
2021/11/20 10:11:07;;;;;;;22.80;9.43;;;13.20;99.90;;;;;;4985839;28;20089;-90
2021/11/20 10:13:57;;;;;;;29.88;8.73;;;13.30;99.90;;;;;;5005721;28;20100;-91
2021/11/20 10:16:54;;;;;;;21.98;9.38;;;13.40;99.90;;;;;;4996807;28;20062;-91
2021/11/20 10:19:26;;;;;;;22.50;8.98;;;13.60;99.90;;;;;;4993768;28;20069;-90
2021/11/20 10:21:58;;;;;;;26.90;9.25;;;13.70;99.90;;;;;;4996468;28;20058;-90
2021/11/20 10:24:37;;;;;;;20.27;9.55;;;13.80;99.90;;;;;;4985141;28;20072;-90
2021/11/20 10:27:10;;;;;;;19.30;9.30;;;13.80;99.90;;;;;;4994195;28;20070;-90
2021/11/20 10:30:07;;;;;;;29.15;10.18;;;13.90;99.90;;;;;;4996040;28;20105;-91
2021/11/20 10:32:41;;;;;;;24.75;9.95;;;14.00;99.90;;;;;;4980176;28;20051;-90
2021/11/20 10:35:38;;;;;;;19.85;9.23;;;14.00;99.90;;;;;;4990581;28;20050;-90
2021/11/20 10:38:20;;;;;;;33.47;12.25;;;13.90;99.90;;;;;;4996411;28;20049;-89
2021/11/20 10:40:58;;;;;;;35.67;11.40;;;13.80;99.90;;;;;;4996160;28;20141;-91
2021/11/20 10:43:30;;;;;;;32.70;10.10;;;13.80;99.90;;;;;;5006594;28;20090;-90
2021/11/20 10:46:48;;;;;;;22.80;9.15;;;13.70;99.90;;;;;;4995806;28;20054;-90
2021/11/20 10:49:18;;;;;;;27.85;9.40;;;13.70;99.90;;;;;;4996531;28;20060;-90
2021/11/20 10:51:51;;;;;;;27.52;11.43;;;13.60;99.90;;;;;;5011490;28;20471;-90
2021/11/20 10:54:26;;;;;;;25.33;9.25;;;13.50;99.90;;;;;;5011881;28;20154;-90
2021/11/20 10:57:02;;;;;;;19.25;8.52;;;13.50;99.90;;;;;;4995499;28;20050;-90
2021/11/20 11:00:02;;;;;;;25.20;8.70;;;13.50;99.90;;;;;;5013049;28;20093;-90
2021/11/20 11:02:50;;;;;;;20.92;8.75;;;13.60;99.90;;;;;;4986017;28;20149;-90
2021/11/20 11:05:55;;;;;;;23.05;8.73;;;13.70;99.90;;;;;;4982904;28;20062;-90
2021/11/20 11:08:43;;;;;;;20.83;9.18;;;13.90;99.90;;;;;;4976035;28;20065;-89
2021/11/20 11:11:42;;;;;;;26.30;9.80;;;14.00;99.90;;;;;;4981010;28;20074;-90
2021/11/20 11:14:34;;;;;;;24.23;9.98;;;14.00;99.90;;;;;;4984167;28;20069;-90
2021/11/20 11:17:32;;;;;;;24.02;9.30;;;14.10;99.90;;;;;;4992922;28;20054;-90
2021/11/20 11:20:29;;;;;;;16.02;8.48;;;14.00;99.90;;;;;;4980030;28;20070;-90
2021/11/20 11:23:11;;;;;;;21.17;8.90;;;13.90;99.90;;;;;;4975627;28;20093;-90
2021/11/20 11:25:52;;;;;;;20.67;9.88;;;14.00;99.90;;;;;;4990595;28;20482;-90
2021/11/20 11:28:52;;;;;;;22.35;8.88;;;14.00;99.90;;;;;;4995569;28;20471;-89
2021/11/20 11:31:31;;;;;;;20.98;8.35;;;13.90;99.90;;;;;;4977859;28;20047;-90
2021/11/20 11:34:00;;;;;;;14.70;8.00;;;14.00;99.90;;;;;;4977355;28;20133;-90
2021/11/20 11:36:45;;;;;;;15.23;8.18;;;14.00;99.90;;;;;;4983545;28;20055;-90
2021/11/20 11:39:39;;;;;;;17.65;8.50;;;14.10;99.90;;;;;;4976615;28;20133;-91
2021/11/20 11:42:14;;;;;;;22.83;8.32;;;14.10;99.90;;;;;;4989059;28;20092;-90
2021/11/20 11:44:53;;;;;;;14.48;8.25;;;14.10;99.90;;;;;;4984574;28;20086;-88
2021/11/20 11:47:45;;;;;;;18.38;8.02;;;14.10;99.90;;;;;;4991263;28;20140;-88
2021/11/20 11:50:46;;;;;;;13.32;8.32;;;14.10;99.90;;;;;;4974850;28;20046;-90
2021/11/20 11:53:32;;;;;;;24.13;9.48;;;14.10;99.90;;;;;;4992323;28;20499;-88
2021/11/20 11:56:31;;;;;;;17.25;8.35;;;14.00;99.90;;;;;;4992814;28;20069;-90
2021/11/20 11:59:38;;;;;;;23.30;9.32;;;14.00;99.90;;;;;;4993849;28;20404;-90
2021/11/20 12:02:19;;;;;;;20.67;8.95;;;13.80;99.90;;;;;;4980469;28;20506;-90
2021/11/20 12:04:51;;;;;;;44.40;13.88;;;13.80;99.90;;;;;;4996521;28;20042;-90
2021/11/20 12:07:25;;;;;;;16.38;8.23;;;13.70;99.90;;;;;;4994309;28;20463;-89
2021/11/20 12:10:13;;;;;;;22.30;9.50;;;13.70;99.90;;;;;;4994302;28;20114;-89
2021/11/20 12:12:54;;;;;;;18.90;9.25;;;13.70;99.90;;;;;;4984076;28;20144;-88
2021/11/20 12:15:31;;;;;;;21.20;9.52;;;13.60;99.90;;;;;;4975647;28;20058;-89
2021/11/20 12:18:35;;;;;;;18.10;8.15;;;13.60;99.90;;;;;;4960635;28;20050;-89
2021/11/20 12:21:16;;;;;;;18.95;8.27;;;13.70;99.90;;;;;;4976900;28;20054;-89
2021/11/20 12:23:54;;;;;;;20.73;9.73;;;13.70;99.90;;;;;;4975424;28;20054;-89
2021/11/20 12:26:53;;;;;;;16.75;7.63;;;13.70;99.90;;;;;;5007383;28;20116;-89
2021/11/20 12:29:32;;;;;;;20.15;8.00;;;13.70;99.90;;;;;;4988561;28;20068;-89
2021/11/20 12:32:33;;;;;;;23.10;7.10;;;13.70;99.90;;;;;;4990405;28;20053;-88
2021/11/20 12:35:26;;;;;;;13.57;6.95;;;13.70;99.90;;;;;;4982603;28;20061;-89
2021/11/20 12:38:08;;;;;;;16.42;6.57;;;13.70;99.90;;;;;;4975134;28;20077;-89
2021/11/20 12:41:02;;;;;;;16.05;6.63;;;13.60;99.90;;;;;;4990973;28;20053;-89
2021/11/20 12:44:08;;;;;;;13.50;6.22;;;13.60;99.90;;;;;;4990006;28;20483;-89
2021/11/20 12:47:13;;;;;;;13.95;6.65;;;13.50;99.90;;;;;;4976768;28;20054;-87
2021/11/20 12:50:24;;;;;;;15.85;6.80;;;13.50;99.90;;;;;;4993669;28;20050;-89
2021/11/20 12:53:04;;;;;;;13.45;5.82;;;13.40;99.90;;;;;;5003108;28;20076;-89
2021/11/20 12:56:05;;;;;;;18.75;7.20;;;13.40;99.90;;;;;;4983878;28;20451;-88
2021/11/20 12:58:36;;;;;;;17.60;6.00;;;13.30;99.90;;;;;;4986887;28;20181;-89
2021/11/20 13:01:08;;;;;;;10.73;6.28;;;13.30;99.90;;;;;;4980612;28;20149;-89
2021/11/20 13:03:39;;;;;;;10.38;6.00;;;13.30;99.90;;;;;;4982198;28;20502;-89
2021/11/20 13:06:31;;;;;;;13.13;6.32;;;13.20;99.90;;;;;;4972534;28;20146;-89
2021/11/20 13:09:25;;;;;;;13.55;6.63;;;13.20;99.90;;;;;;4991539;28;20089;-88
2021/11/20 13:12:16;;;;;;;11.63;6.53;;;13.10;99.90;;;;;;4975834;28;20054;-88
2021/11/20 13:15:15;;;;;;;16.70;7.20;;;13.10;99.90;;;;;;4982108;28;20054;-89
2021/11/20 13:17:47;;;;;;;11.35;6.65;;;13.00;99.90;;;;;;5006480;28;20442;-88
2021/11/20 13:20:34;;;;;;;17.75;7.60;;;12.90;99.90;;;;;;5003816;28;20047;-89
2021/11/20 13:23:17;;;;;;;12.63;6.53;;;12.90;99.90;;;;;;4982749;28;20637;-88